createdAt,value
2022-11-20T00:01:21.937Z,12.25
2022-11-20T00:03:48.798Z,11.73
2022-11-20T00:06:18.364Z,11.65
2022-11-20T00:08:46.086Z,11.87
2022-11-20T00:11:16.435Z,13.18
2022-11-20T00:13:44.651Z,7.20
2022-11-20T00:16:12.653Z,6.72
2022-11-20T00:18:39.180Z,8.68
2022-11-20T00:21:14.906Z,7.10
2022-11-20T00:23:42.505Z,6.97
2022-11-20T00:26:11.297Z,6.93
2022-11-20T00:28:37.934Z,7.68
2022-11-20T00:31:06.791Z,6.85
2022-11-20T00:33:33.687Z,9.70
2022-11-20T00:36:11.975Z,7.68
2022-11-20T00:38:39.103Z,8.40
2022-11-20T00:41:08.362Z,9.27
2022-11-20T00:43:35.280Z,10.98
2022-11-20T00:46:04.324Z,10.17
2022-11-20T00:48:31.666Z,9.30
2022-11-20T00:50:58.676Z,10.43
2022-11-20T00:53:25.828Z,11.75
2022-11-20T00:56:02.752Z,12.65
2022-11-20T00:58:31.760Z,11.07
2022-11-20T01:01:08.974Z,9.80
2022-11-20T01:03:37.320Z,12.02
2022-11-20T01:06:06.596Z,11.98
2022-11-20T01:08:34.871Z,12.90
2022-11-20T01:11:13.464Z,22.17
2022-11-20T01:13:40.685Z,9.82
2022-11-20T01:16:08.310Z,8.93
2022-11-20T01:18:36.089Z,11.55
2022-11-20T01:21:05.314Z,11.30
2022-11-20T01:23:36.536Z,11.37
2022-11-20T01:26:06.276Z,15.80
2022-11-20T01:28:33.602Z,11.80
2022-11-20T01:31:17.998Z,12.25
2022-11-20T01:33:45.811Z,12.60
2022-11-20T01:36:13.524Z,10.30
2022-11-20T01:38:40.207Z,9.90
2022-11-20T01:41:08.110Z,11.63
2022-11-20T01:43:34.732Z,9.40
2022-11-20T01:46:02.761Z,10.75
2022-11-20T01:48:43.251Z,11.17
2022-11-20T01:51:20.122Z,9.82
2022-11-20T01:53:47.588Z,9.32
2022-11-20T01:56:15.744Z,10.20
2022-11-20T01:58:49.412Z,8.45
2022-11-20T02:01:16.335Z,7.57
2022-11-20T02:03:44.611Z,9.85
2022-11-20T02:06:35.725Z,11.55
2022-11-20T02:09:02.254Z,8.68
2022-11-20T02:11:30.704Z,13.40
2022-11-20T02:13:57.741Z,10.00
2022-11-20T02:16:47.095Z,7.50
2022-11-20T02:19:33.969Z,9.70
2022-11-20T02:22:08.932Z,11.55
2022-11-20T02:24:35.680Z,8.95
2022-11-20T02:27:05.074Z,6.47
2022-11-20T02:29:54.605Z,10.45
2022-11-20T02:32:33.538Z,7.78
2022-11-20T02:35:19.192Z,4.90
2022-11-20T02:37:48.831Z,7.63
2022-11-20T02:40:15.332Z,7.43
2022-11-20T02:42:41.954Z,9.55
2022-11-20T02:45:09.410Z,7.43
2022-11-20T02:47:35.963Z,9.07
2022-11-20T02:50:04.805Z,9.05
2022-11-20T02:52:31.793Z,12.13
2022-11-20T02:54:58.302Z,11.90
2022-11-20T02:57:24.813Z,17.75
2022-11-20T02:59:51.287Z,20.08
2022-11-20T03:02:17.932Z,15.07
2022-11-20T03:04:44.368Z,13.30
2022-11-20T03:07:10.937Z,15.73
2022-11-20T03:09:37.440Z,15.10
2022-11-20T03:12:04.063Z,16.52
2022-11-20T03:14:30.528Z,13.38
2022-11-20T03:16:57.053Z,11.07
2022-11-20T03:19:23.847Z,8.70
2022-11-20T03:21:50.731Z,9.38
2022-11-20T03:24:17.310Z,7.28
2022-11-20T03:26:44.003Z,9.35
2022-11-20T03:29:10.477Z,11.10
2022-11-20T03:31:42.940Z,9.80
2022-11-20T03:34:11.721Z,7.20
2022-11-20T03:36:40.086Z,7.45
2022-11-20T03:39:06.729Z,7.20
2022-11-20T03:41:38.300Z,6.77
2022-11-20T03:44:07.067Z,10.38
2022-11-20T03:46:34.029Z,7.05
2022-11-20T03:49:00.447Z,8.15
2022-11-20T03:51:35.562Z,9.20
2022-11-20T03:54:04.773Z,5.97
2022-11-20T03:56:33.972Z,7.80
2022-11-20T03:59:00.923Z,6.60
2022-11-20T04:01:38.566Z,6.85
2022-11-20T04:04:05.424Z,9.13
2022-11-20T04:06:36.517Z,7.17
2022-11-20T04:09:03.462Z,7.85
2022-11-20T04:11:32.695Z,6.40
2022-11-20T04:14:01.571Z,8.05
2022-11-20T04:16:31.894Z,5.70
2022-11-20T04:19:00.980Z,7.70
2022-11-20T04:21:28.456Z,7.70
2022-11-20T04:23:55.929Z,7.90
2022-11-20T04:26:24.465Z,6.65
2022-11-20T04:28:51.054Z,9.00
2022-11-20T04:31:20.943Z,9.17
2022-11-20T04:33:47.620Z,6.32
2022-11-20T04:36:23.132Z,5.57
2022-11-20T04:38:57.148Z,6.78
2022-11-20T04:41:26.489Z,5.93
2022-11-20T04:43:59.995Z,6.53
2022-11-20T04:46:28.415Z,7.30
2022-11-20T04:48:54.939Z,7.95
2022-11-20T04:51:21.480Z,8.52
2022-11-20T04:53:47.983Z,7.38
2022-11-20T04:56:14.961Z,7.00
2022-11-20T04:58:41.903Z,9.32
2022-11-20T05:01:13.310Z,6.40
2022-11-20T05:03:43.828Z,8.27
2022-11-20T05:06:12.929Z,8.07
2022-11-20T05:08:40.156Z,5.97
2022-11-20T05:11:18.879Z,7.30
2022-11-20T05:13:45.572Z,7.80
2022-11-20T05:16:18.194Z,7.43
2022-11-20T05:18:45.135Z,8.73
2022-11-20T05:21:13.368Z,9.73
2022-11-20T05:23:40.339Z,8.43
2022-11-20T05:26:08.642Z,12.45
2022-11-20T05:28:35.157Z,8.45
2022-11-20T05:31:06.971Z,6.15
2022-11-20T05:33:35.072Z,5.30
2022-11-20T05:36:02.413Z,6.47
2022-11-20T05:38:28.904Z,8.05
2022-11-20T05:40:55.298Z,6.18
2022-11-20T05:43:21.802Z,7.95
2022-11-20T05:45:55.615Z,8.40
2022-11-20T05:48:22.201Z,6.38
2022-11-20T05:50:49.448Z,5.50
2022-11-20T05:53:15.957Z,7.93
2022-11-20T05:55:42.543Z,7.28
2022-11-20T05:58:09.140Z,8.47
2022-11-20T06:00:36.357Z,6.18
2022-11-20T06:03:03.062Z,7.22
2022-11-20T06:05:29.648Z,7.13
2022-11-20T06:07:56.084Z,5.10
2022-11-20T06:10:22.547Z,7.67
2022-11-20T06:12:49.022Z,5.47
2022-11-20T06:15:15.560Z,8.20
2022-11-20T06:17:41.971Z,6.10
2022-11-20T06:20:09.124Z,5.78
2022-11-20T06:22:35.598Z,6.30
2022-11-20T06:25:02.071Z,6.28
2022-11-20T06:27:28.539Z,5.93
2022-11-20T06:29:54.947Z,7.57
2022-11-20T06:32:21.397Z,7.28
2022-11-20T06:34:47.901Z,8.80
2022-11-20T06:37:14.425Z,7.18
2022-11-20T06:39:40.906Z,7.65
2022-11-20T06:42:07.314Z,5.78
2022-11-20T06:44:33.816Z,7.43
2022-11-20T06:47:00.960Z,6.03
2022-11-20T06:49:27.542Z,7.25
2022-11-20T06:51:54.081Z,7.60
2022-11-20T06:54:20.524Z,9.30
2022-11-20T06:56:50.397Z,6.18
2022-11-20T06:59:16.881Z,7.33
2022-11-20T07:01:43.357Z,6.55
2022-11-20T07:04:09.899Z,8.10
2022-11-20T07:06:36.372Z,7.72
2022-11-20T07:09:03.487Z,4.50
2022-11-20T07:11:30.193Z,5.97
2022-11-20T07:13:57.780Z,9.30
2022-11-20T07:16:24.210Z,5.22
2022-11-20T07:18:51.230Z,8.50
2022-11-20T07:21:18.231Z,7.97
2022-11-20T07:23:44.787Z,7.30
2022-11-20T07:26:12.106Z,10.23
2022-11-20T07:28:39.040Z,9.32
2022-11-20T07:31:07.718Z,9.35
2022-11-20T07:33:34.415Z,8.15
2022-11-20T07:36:01.434Z,9.93
2022-11-20T07:38:28.062Z,9.73
2022-11-20T07:41:02.522Z,8.57
2022-11-20T07:43:29.196Z,7.03
2022-11-20T07:45:59.510Z,9.38
2022-11-20T07:48:26.775Z,10.53
2022-11-20T07:50:57.230Z,7.85
2022-11-20T07:53:24.638Z,7.65
2022-11-20T07:55:53.383Z,8.05
2022-11-20T07:58:21.072Z,8.77
2022-11-20T08:00:47.977Z,7.90
2022-11-20T08:03:14.800Z,7.32
2022-11-20T08:05:41.230Z,8.13
2022-11-20T08:08:08.655Z,8.63
2022-11-20T08:10:35.251Z,9.63
2022-11-20T08:13:20.052Z,8.03
2022-11-20T08:15:51.028Z,9.13
2022-11-20T08:18:33.702Z,8.65
2022-11-20T08:21:05.091Z,8.25
2022-11-20T08:23:31.717Z,9.88
2022-11-20T08:25:58.418Z,8.17
2022-11-20T08:28:24.905Z,16.55
2022-11-20T08:30:51.689Z,13.57
2022-11-20T08:33:19.018Z,12.05
2022-11-20T08:35:45.773Z,10.77
2022-11-20T08:38:12.383Z,8.03
2022-11-20T08:40:38.902Z,8.07
2022-11-20T08:43:05.368Z,12.80
2022-11-20T08:45:34.566Z,11.77
2022-11-20T08:48:02.952Z,12.55
2022-11-20T08:50:30.283Z,12.43
2022-11-20T08:52:56.758Z,11.55
2022-11-20T08:55:23.234Z,14.35
2022-11-20T08:57:51.158Z,13.55
2022-11-20T09:00:18.351Z,10.55
2022-11-20T09:02:44.864Z,9.33
2022-11-20T09:05:11.443Z,10.98
2022-11-20T09:07:38.049Z,13.15
2022-11-20T09:10:23.097Z,11.73
2022-11-20T09:12:52.762Z,13.52
2022-11-20T09:15:20.297Z,9.47
2022-11-20T09:17:54.114Z,11.15
2022-11-20T09:20:21.070Z,10.85
2022-11-20T09:22:47.793Z,9.40
2022-11-20T09:25:14.295Z,12.65
2022-11-20T09:27:42.471Z,12.30
2022-11-20T09:30:09.481Z,11.48
2022-11-20T09:32:36.784Z,12.75
2022-11-20T09:35:03.393Z,10.90
2022-11-20T09:37:30.122Z,14.35
2022-11-20T09:39:56.628Z,12.17
2022-11-20T09:42:35.301Z,15.00
2022-11-20T09:45:20.076Z,13.43
2022-11-20T09:47:46.501Z,13.43
2022-11-20T09:50:36.825Z,13.75
2022-11-20T09:53:27.734Z,12.80
2022-11-20T09:55:55.888Z,14.80
2022-11-20T09:58:35.972Z,15.40
2022-11-20T10:01:34.052Z,15.05
2022-11-20T10:04:15.792Z,12.68
2022-11-20T10:07:30.253Z,14.73
2022-11-20T10:09:54.897Z,14.18
2022-11-20T10:12:56.985Z,16.58
2022-11-20T10:15:35.228Z,18.15
2022-11-20T10:18:07.477Z,13.77
2022-11-20T10:20:47.289Z,16.63
2022-11-20T10:23:42.382Z,18.33
2022-11-20T10:26:32.991Z,18.20
2022-11-20T10:29:17.847Z,16.67
2022-11-20T10:31:48.834Z,15.63
2022-11-20T10:34:41.856Z,16.50
2022-11-20T10:37:19.469Z,16.30
2022-11-20T10:40:02.189Z,14.43
2022-11-20T10:42:40.059Z,15.20
2022-11-20T10:45:22.778Z,16.38
2022-11-20T10:47:49.686Z,12.33
2022-11-20T10:50:22.633Z,16.23
2022-11-20T10:53:21.439Z,17.40
2022-11-20T10:56:08.943Z,17.77
2022-11-20T10:58:45.408Z,16.83
2022-11-20T11:01:18.018Z,15.20
2022-11-20T11:03:45.650Z,17.98
2022-11-20T11:06:20.928Z,16.45
2022-11-20T11:08:50.309Z,17.73
2022-11-20T11:11:23.336Z,14.98
2022-11-20T11:13:49.943Z,20.23
2022-11-20T11:16:27.648Z,18.08
2022-11-20T11:19:05.930Z,17.00
2022-11-20T11:21:32.444Z,17.92
2022-11-20T11:24:26.901Z,17.95
2022-11-20T11:27:16.460Z,19.33
2022-11-20T11:29:44.062Z,18.88
2022-11-20T11:32:16.077Z,18.45
2022-11-20T11:34:42.524Z,19.92
2022-11-20T11:37:35.815Z,21.52
2022-11-20T11:40:23.458Z,20.90
2022-11-20T11:42:59.400Z,20.48
2022-11-20T11:45:26.747Z,20.25
2022-11-20T11:47:56.731Z,22.75
2022-11-20T11:50:25.867Z,23.95
2022-11-20T11:53:14.003Z,21.07
2022-11-20T11:55:52.321Z,22.25
2022-11-20T11:58:35.979Z,21.42
2022-11-20T12:01:34.404Z,23.50
2022-11-20T12:04:06.945Z,20.52
2022-11-20T12:06:37.000Z,22.03
2022-11-20T12:09:06.664Z,23.33
2022-11-20T12:11:59.798Z,19.63
2022-11-20T12:14:35.171Z,22.25
2022-11-20T12:17:02.881Z,20.63
2022-11-20T12:19:35.709Z,23.57
2022-11-20T12:22:32.932Z,22.15
2022-11-20T12:25:25.826Z,21.60
2022-11-20T12:28:10.638Z,22.05
2022-11-20T12:30:48.257Z,19.35
2022-11-20T12:33:34.408Z,20.77
2022-11-20T12:36:16.935Z,23.58
2022-11-20T12:38:56.067Z,18.60
2022-11-20T12:41:57.802Z,23.02
2022-11-20T12:44:55.046Z,19.00
2022-11-20T12:47:40.386Z,20.57
2022-11-20T12:50:16.734Z,22.00
2022-11-20T12:52:48.418Z,20.65
2022-11-20T12:55:58.159Z,21.30
2022-11-20T12:58:24.651Z,22.13
2022-11-20T13:01:43.529Z,22.20
2022-11-20T13:04:13.082Z,21.58
2022-11-20T13:06:42.568Z,20.92
2022-11-20T13:09:18.438Z,19.92
2022-11-20T13:12:11.064Z,20.33
2022-11-20T13:14:47.133Z,20.00
2022-11-20T13:17:37.756Z,22.30
2022-11-20T13:20:07.651Z,22.58
2022-11-20T13:22:48.589Z,18.52
2022-11-20T13:25:35.935Z,22.45
2022-11-20T13:28:22.361Z,20.13
2022-11-20T13:30:54.974Z,18.80
2022-11-20T13:33:36.596Z,23.38
2022-11-20T13:36:33.525Z,21.70
2022-11-20T13:39:00.410Z,22.48
2022-11-20T13:41:36.274Z,19.63
2022-11-20T13:44:38.947Z,23.42
2022-11-20T13:47:23.087Z,17.48
2022-11-20T13:49:50.259Z,21.00
2022-11-20T13:52:51.991Z,21.67
2022-11-20T13:55:44.236Z,22.03
2022-11-20T13:58:13.761Z,22.75
2022-11-20T14:00:53.482Z,24.20
2022-11-20T14:03:44.025Z,22.48
2022-11-20T14:06:27.131Z,20.55
2022-11-20T14:08:54.174Z,20.70
2022-11-20T14:11:23.806Z,24.00
2022-11-20T14:13:55.020Z,23.60
2022-11-20T14:16:23.024Z,23.45
2022-11-20T14:18:50.255Z,24.98
2022-11-20T14:21:27.424Z,22.83
2022-11-20T14:24:04.756Z,21.50
2022-11-20T14:26:31.992Z,23.33
2022-11-20T14:28:59.215Z,21.15
2022-11-20T14:31:28.222Z,27.67
2022-11-20T14:33:55.932Z,23.83
2022-11-20T14:36:26.131Z,22.48
2022-11-20T14:38:53.866Z,20.45
2022-11-20T14:41:23.435Z,20.75
2022-11-20T14:43:57.264Z,23.40
2022-11-20T14:46:24.744Z,17.83
2022-11-20T14:48:54.861Z,22.25
2022-11-20T14:51:29.321Z,20.50
2022-11-20T14:53:55.829Z,27.30
2022-11-20T14:56:25.748Z,20.95
2022-11-20T14:58:59.047Z,21.50
2022-11-20T15:01:30.710Z,25.73
2022-11-20T15:04:06.787Z,25.95
2022-11-20T15:06:33.547Z,22.98
2022-11-20T15:09:00.189Z,25.40
2022-11-20T15:11:34.736Z,23.13
2022-11-20T15:14:07.327Z,24.42
2022-11-20T15:16:34.104Z,23.45
2022-11-20T15:19:01.711Z,26.15
2022-11-20T15:21:28.524Z,20.88
2022-11-20T15:23:55.009Z,24.00
2022-11-20T15:26:28.993Z,28.95
2022-11-20T15:32:48.319Z,22.67
2022-11-20T15:35:19.109Z,28.73
2022-11-20T15:37:45.610Z,25.23
2022-11-20T15:40:12.511Z,23.67
2022-11-20T15:42:39.089Z,24.27
2022-11-20T15:45:06.057Z,23.02
2022-11-20T15:47:36.027Z,18.17
2022-11-20T15:50:02.625Z,25.43
2022-11-20T15:52:36.336Z,23.95
2022-11-20T15:55:11.927Z,25.75
2022-11-20T15:57:38.434Z,22.48
2022-11-20T16:00:05.649Z,29.25
2022-11-20T16:02:32.117Z,24.20
2022-11-20T16:04:58.624Z,24.63
2022-11-20T16:07:25.163Z,21.23
2022-11-20T16:09:51.631Z,21.50
2022-11-20T16:12:38.051Z,20.67
2022-11-20T16:15:23.442Z,18.83
2022-11-20T16:17:49.937Z,22.27
2022-11-20T16:20:16.644Z,22.00
2022-11-20T16:22:43.270Z,22.02
2022-11-20T16:25:09.866Z,23.20
2022-11-20T16:27:36.366Z,19.10
2022-11-20T16:30:02.925Z,21.70
2022-11-20T16:32:29.525Z,22.70
2022-11-20T16:34:55.952Z,21.58
2022-11-20T16:37:22.385Z,23.90
2022-11-20T16:39:48.852Z,24.70
2022-11-20T16:42:15.339Z,23.73
2022-11-20T16:44:41.817Z,26.52
2022-11-20T16:47:08.301Z,23.17
2022-11-20T16:49:34.781Z,20.33
2022-11-20T16:52:01.266Z,18.13
2022-11-20T16:54:28.060Z,18.27
2022-11-20T16:56:54.849Z,23.30
2022-11-20T16:59:21.308Z,20.13
2022-11-20T17:01:48.505Z,19.00
2022-11-20T17:04:15.094Z,19.83
2022-11-20T17:06:47.875Z,17.83
2022-11-20T17:09:14.712Z,20.27
2022-11-20T17:11:41.247Z,18.38
2022-11-20T17:14:07.825Z,18.05
2022-11-20T17:16:36.389Z,18.90
2022-11-20T17:19:05.526Z,21.08
2022-11-20T17:21:33.556Z,17.40
2022-11-20T17:24:02.938Z,17.48
2022-11-20T17:26:29.468Z,20.48
2022-11-20T17:29:04.688Z,22.47
2022-11-20T17:31:33.318Z,24.80
2022-11-20T17:34:00.392Z,19.85
2022-11-20T17:36:27.921Z,20.73
2022-11-20T17:38:54.758Z,22.20
2022-11-20T17:41:25.430Z,21.80
2022-11-20T17:43:56.640Z,20.95
2022-11-20T17:46:25.612Z,22.42
2022-11-20T17:49:05.083Z,22.38
2022-11-20T17:51:34.576Z,21.40
2022-11-20T17:54:04.503Z,25.47
2022-11-20T17:56:51.018Z,21.38
2022-11-20T17:59:18.693Z,23.20
2022-11-20T18:01:45.508Z,21.40
2022-11-20T18:04:12.902Z,26.45
2022-11-20T18:06:39.941Z,18.43
2022-11-20T18:09:07.209Z,23.80
2022-11-20T18:11:36.577Z,26.50
2022-11-20T18:14:25.113Z,19.45
2022-11-20T18:16:54.667Z,23.73
2022-11-20T18:19:23.806Z,14.87
2022-11-20T18:21:50.373Z,14.18
2022-11-20T18:24:17.414Z,17.95
2022-11-20T18:26:44.608Z,21.08
2022-11-20T18:29:12.951Z,17.38
2022-11-20T18:31:40.146Z,22.90
2022-11-20T18:34:11.430Z,18.33
2022-11-20T18:36:38.460Z,20.10
2022-11-20T18:39:05.102Z,21.65
2022-11-20T18:41:50.820Z,20.15
2022-11-20T18:44:39.205Z,18.53
2022-11-20T18:47:14.098Z,18.90
2022-11-20T18:49:41.887Z,19.48
2022-11-20T18:52:09.088Z,17.65
2022-11-20T18:54:36.874Z,18.23
2022-11-20T18:57:05.067Z,20.70
2022-11-20T18:59:32.136Z,15.38
2022-11-20T19:01:58.792Z,19.65
2022-11-20T19:04:25.702Z,19.63
2022-11-20T19:06:56.027Z,19.05
2022-11-20T19:09:23.813Z,19.37
2022-11-20T19:11:51.390Z,19.77
2022-11-20T19:14:18.359Z,18.63
2022-11-20T19:16:45.042Z,24.08
2022-11-20T19:19:11.714Z,18.15
2022-11-20T19:21:38.207Z,21.47
2022-11-20T19:24:05.662Z,18.10
2022-11-20T19:26:34.424Z,22.10
2022-11-20T19:29:01.028Z,21.17
2022-11-20T19:31:27.645Z,20.73
2022-11-20T19:34:00.815Z,23.37
2022-11-20T19:36:30.056Z,18.23
2022-11-20T19:38:56.836Z,20.60
2022-11-20T19:41:31.707Z,19.77
2022-11-20T19:44:03.513Z,20.02
2022-11-20T19:46:32.295Z,22.87
2022-11-20T19:48:59.310Z,22.13
2022-11-20T19:51:31.128Z,17.75
2022-11-20T19:53:59.492Z,19.55
2022-11-20T19:56:28.636Z,19.17
2022-11-20T19:58:56.614Z,19.57
2022-11-20T20:01:26.728Z,20.85
2022-11-20T20:03:53.920Z,21.58
2022-11-20T20:06:23.456Z,19.08
2022-11-20T20:08:58.498Z,21.05
2022-11-20T20:11:27.324Z,20.43
2022-11-20T20:13:55.969Z,17.67
2022-11-20T20:16:24.476Z,18.98
2022-11-20T20:18:57.916Z,18.85
2022-11-20T20:21:24.861Z,17.83
2022-11-20T20:23:53.519Z,20.30
2022-11-20T20:26:22.147Z,19.85
2022-11-20T20:28:48.640Z,20.48
2022-11-20T20:31:19.329Z,19.10
2022-11-20T20:33:46.193Z,21.50
2022-11-20T20:36:15.203Z,22.57
2022-11-20T20:38:43.321Z,24.52
2022-11-20T20:41:10.067Z,17.88
2022-11-20T20:43:57.393Z,20.73
2022-11-20T20:46:24.579Z,23.27
2022-11-20T20:48:54.634Z,22.40
2022-11-20T20:51:21.988Z,20.48
2022-11-20T20:53:49.007Z,21.13
2022-11-20T20:56:16.353Z,23.50
2022-11-20T20:58:42.896Z,22.08
2022-11-20T21:01:12.659Z,23.50
2022-11-20T21:03:39.810Z,25.33
2022-11-20T21:06:09.898Z,24.30
2022-11-20T21:08:40.145Z,22.60
2022-11-20T21:11:13.350Z,23.60
2022-11-20T21:13:41.489Z,22.23
2022-11-20T21:16:08.121Z,21.08
2022-11-20T21:18:35.096Z,23.20
2022-11-20T21:21:23.840Z,24.20
2022-11-20T21:23:52.046Z,23.50
2022-11-20T21:26:19.044Z,24.60
2022-11-20T21:28:45.963Z,22.55
2022-11-20T21:31:15.451Z,22.55
2022-11-20T21:33:44.196Z,20.10
2022-11-20T21:36:13.849Z,19.67
2022-11-20T21:38:40.739Z,22.43
2022-11-20T21:41:10.259Z,20.77
2022-11-20T21:43:37.137Z,23.23
2022-11-20T21:46:06.367Z,22.63
2022-11-20T21:48:34.039Z,23.13
2022-11-20T21:51:06.789Z,24.67
2022-11-20T21:53:34.062Z,19.55
2022-11-20T21:56:00.675Z,21.52
2022-11-20T21:58:27.548Z,21.58
2022-11-20T22:00:54.680Z,22.13
2022-11-20T22:03:22.080Z,23.67
2022-11-20T22:05:58.863Z,25.02
2022-11-20T22:08:26.626Z,23.77
2022-11-20T22:10:55.007Z,22.88
2022-11-20T22:13:40.050Z,24.23
2022-11-20T22:16:06.592Z,26.40
2022-11-20T22:18:33.154Z,24.80
2022-11-20T22:21:09.108Z,25.35
2022-11-20T22:23:36.002Z,23.40
2022-11-20T22:26:14.292Z,26.42
2022-11-20T22:28:41.184Z,25.30
2022-11-20T22:31:09.577Z,25.20
2022-11-20T22:33:37.748Z,24.20
2022-11-20T22:36:06.004Z,26.67
2022-11-20T22:38:38.916Z,25.10
2022-11-20T22:41:08.802Z,26.40
2022-11-20T22:43:36.075Z,29.25
2022-11-20T22:46:04.048Z,25.40
2022-11-20T22:48:30.591Z,26.98
2022-11-20T22:51:09.350Z,28.25
2022-11-20T22:53:36.199Z,27.90
2022-11-20T22:56:03.710Z,26.50
2022-11-20T22:58:31.623Z,29.55
2022-11-20T23:01:33.509Z,27.92
2022-11-20T23:04:02.460Z,28.90
2022-11-20T23:06:29.687Z,33.77
2022-11-20T23:08:56.728Z,29.42
2022-11-20T23:11:26.228Z,28.52
2022-11-20T23:14:01.377Z,26.95
2022-11-20T23:16:29.771Z,30.40
2022-11-20T23:18:58.754Z,32.90
2022-11-20T23:21:26.077Z,29.20
2022-11-20T23:23:55.306Z,24.27
2022-11-20T23:26:24.707Z,28.17
2022-11-20T23:28:54.290Z,28.17
2022-11-20T23:31:21.272Z,27.47
2022-11-20T23:33:47.729Z,27.70
2022-11-20T23:36:14.227Z,25.85
2022-11-20T23:38:41.039Z,26.80
2022-11-20T23:41:07.887Z,27.13
2022-11-20T23:43:34.792Z,26.83
2022-11-20T23:46:02.484Z,25.02
2022-11-20T23:48:34.929Z,26.95
2022-11-20T23:51:01.939Z,25.83
2022-11-20T23:53:29.013Z,24.10
2022-11-20T23:55:57.734Z,19.40
2022-11-20T23:58:29.787Z,26.25
